Historique des mesures à Cassis (13260), France
Quotidien Résumé Juillet 21, 2017 Unités:  Métrique    US   Métrique/US
« Précédent (Jour)
Suivant (Jour) »
Quotidien Hebdomadaire Mensuel Annuel Période au choix
  Maximum: Minimum: Moyenne:
Température: TemperatureC °C 22.2 °C 25.1 °C
Point de rosée: DewpointC °C 12.4 °C 17.5 °C
Humidité: Humidity % 50 % 59 %
Vitesse du vent: 0 km/h 0 km/h 4 km/h
Rafales: 0 km/h - -
Vent:- - SSE
Pression: PressurehPa hPa 1005.6 hPa -
Précipitations: 0.0 mm    
Historical Graphs
 
 
Mesures pour : Juillet 21, 2017
Heure Temperature Point de rosée Pression Vent Vitesse du vent Rafales Humidité Pluie (par heure) Conditions
TemperatureC °C DewpointC °C PressurehPa hPa Calm     Humidity % HourlyPrecipMM mm SoftwareType W/m2
00:11 23.4 °C 12.4 °C 1007.7 hPa NNW 8 km/h 8 km/h 50 % 0.0 mm open2300-1.11 W/m2
01:11 23.0 °C 13.9 °C 1007.7 hPa NNE 2.3 km/h 2.3 km/h 57 % 0.0 mm open2300-1.11 W/m2
02:11 22.9 °C 14.4 °C 1007.3 hPa North 6.4 km/h 9.8 km/h 59 % 0.0 mm open2300-1.11 W/m2
03:11 22.6 °C 13.6 °C 1007.0 hPa NNE 4.7 km/h 6.4 km/h 57 % 0.0 mm open2300-1.11 W/m2
04:11 23.2 °C 12.8 °C 1006.7 hPa Calm   2.9 km/h 52 % 0.0 mm open2300-1.11 W/m2
05:11 22.9 °C 12.5 °C 1006.7 hPa Calm     52 % 0.0 mm open2300-1.11 W/m2
06:11 22.2 °C 13.5 °C 1006.7 hPa Calm   3.4 km/h 58 % 0.0 mm open2300-1.11 W/m2
07:11 22.2 °C 14.1 °C 1007.0 hPa Calm     60 % 0.0 mm open2300-1.11 W/m2
08:11 23.4 °C 15.4 °C 1007.3 hPa Calm     61 % 0.0 mm open2300-1.11 W/m2
09:11 24.9 °C 16.1 °C 1007.3 hPa ESE 2.9 km/h 2.9 km/h 58 % 0.0 mm open2300-1.11 W/m2
10:11 25.9 °C 17.8 °C 1007.7 hPa SW 16.9 km/h 16.9 km/h 61 % 0.0 mm open2300-1.11 W/m2
11:11 29.1 °C 21.3 °C 1007.7 hPa SSW 8 km/h 26.2 km/h 63 % 0.0 mm open2300-1.11 W/m2
12:11 30.6 °C 22.3 °C 1007.3 hPa SSW 8.9 km/h 8.9 km/h 61 % 0.0 mm open2300-1.11 W/m2
13:11 30.9 °C 22.6 °C 1007.3 hPa SW 6.9 km/h 19.6 km/h 61 % 0.0 mm open2300-1.11 W/m2
14:11 31.3 °C 22.7 °C 1007.3 hPa South 10.3 km/h 14.5 km/h 60 % 0.0 mm open2300-1.11 W/m2
15:11 30.9 °C 22.3 °C 1007.3 hPa NNE 2.3 km/h 12.2 km/h 60 % 0.0 mm open2300-1.11 W/m2
16:11 29.8 °C 21.7 °C 1007.3 hPa WSW 14 km/h 14 km/h 62 % 0.0 mm open2300-1.11 W/m2
17:11 28.4 °C 20.9 °C 1007.3 hPa Calm     64 % 0.0 mm open2300-1.11 W/m2
18:11 27.6 °C 20.9 °C 1005.6 hPa Calm   5.1 km/h 67 % 0.0 mm open2300-1.11 W/m2
19:11 27.9 °C 21.4 °C 1006.0 hPa South 4.7 km/h 13.2 km/h 68 % 0.0 mm open2300-1.11 W/m2
20:11 27.1 °C 21.4 °C 1006.7 hPa SSE 5.6 km/h 5.6 km/h 71 % 0.0 mm open2300-1.11 W/m2
21:11 26.4 °C 21.2 °C 1007.0 hPa Calm     73 % 0.0 mm open2300-1.11 W/m2
22:11 25.9 °C 21.1 °C 1007.7 hPa Calm     75 % 0.0 mm open2300-1.11 W/m2
23:11 25.2 °C 20.7 °C 1008.0 hPa Calm     76 % 0.0 mm open2300-1.11 W/m2
Observations météo à CASSIS
WU-History script by Weather Underground - 1 mb